sensor_id;sensor_type;location;lat;lon;timestamp;pressure;altitude;pressure_sealevel;temperature
13497;BMP180;6820;49.374;8.452;2023-04-03T00:00:42;101588.13;;;12.64
13497;BMP180;6820;49.374;8.452;2023-04-03T00:04:44;101582.41;;;12.55
13497;BMP180;6820;49.374;8.452;2023-04-03T00:08:46;101582.06;;;12.51
13497;BMP180;6820;49.374;8.452;2023-04-03T00:12:47;101588.25;;;12.43
13497;BMP180;6820;49.374;8.452;2023-04-03T00:16:49;101585.72;;;12.32
13497;BMP180;6820;49.374;8.452;2023-04-03T00:20:51;101585.25;;;12.26
13497;BMP180;6820;49.374;8.452;2023-04-03T00:24:52;101583.59;;;12.15
13497;BMP180;6820;49.374;8.452;2023-04-03T00:28:54;101594.41;;;12.13
13497;BMP180;6820;49.374;8.452;2023-04-03T00:32:55;101600.38;;;12.02
13497;BMP180;6820;49.374;8.452;2023-04-03T00:36:57;101601.94;;;12.00
13497;BMP180;6820;49.374;8.452;2023-04-03T00:40:59;101605.38;;;12.00
13497;BMP180;6820;49.374;8.452;2023-04-03T00:49:02;101610.00;;;11.94
13497;BMP180;6820;49.374;8.452;2023-04-03T00:53:05;101603.34;;;11.96
13497;BMP180;6820;49.374;8.452;2023-04-03T00:57:08;101602.16;;;11.91
13497;BMP180;6820;49.374;8.452;2023-04-03T01:01:13;101588.00;;;11.84
13497;BMP180;6820;49.374;8.452;2023-04-03T01:05:17;101588.53;;;11.80
13497;BMP180;6820;49.374;8.452;2023-04-03T01:09:20;101592.94;;;11.71
13497;BMP180;6820;49.374;8.452;2023-04-03T01:13:30;101592.47;;;11.65
13497;BMP180;6820;49.374;8.452;2023-04-03T01:17:38;101599.84;;;11.62
13497;BMP180;6820;49.374;8.452;2023-04-03T01:25:55;101600.81;;;11.53
13497;BMP180;6820;49.374;8.452;2023-04-03T01:29:57;101603.34;;;11.53
13497;BMP180;6820;49.374;8.452;2023-04-03T01:33:59;101605.91;;;11.53
13497;BMP180;6820;49.374;8.452;2023-04-03T01:38:02;101599.81;;;11.51
13497;BMP180;6820;49.374;8.452;2023-04-03T01:42:04;101604.66;;;11.48
13497;BMP180;6820;49.374;8.452;2023-04-03T01:46:10;101603.78;;;11.47
13497;BMP180;6820;49.374;8.452;2023-04-03T01:50:12;101613.06;;;11.47
13497;BMP180;6820;49.374;8.452;2023-04-03T01:54:13;101611.81;;;11.42
13497;BMP180;6820;49.374;8.452;2023-04-03T01:58:16;101608.78;;;11.36
13497;BMP180;6820;49.374;8.452;2023-04-03T02:02:18;101605.88;;;11.31
13497;BMP180;6820;49.374;8.452;2023-04-03T02:06:21;101601.38;;;11.27
13497;BMP180;6820;49.374;8.452;2023-04-03T02:10:23;101603.31;;;11.20
13497;BMP180;6820;49.374;8.452;2023-04-03T02:14:25;101598.50;;;11.13
13497;BMP180;6820;49.374;8.452;2023-04-03T02:18:28;101608.44;;;11.10
13497;BMP180;6820;49.374;8.452;2023-04-03T02:22:30;101612.50;;;11.08
13497;BMP180;6820;49.374;8.452;2023-04-03T02:26:32;101601.59;;;11.09
13497;BMP180;6820;49.374;8.452;2023-04-03T02:30:33;101598.69;;;11.05
13497;BMP180;6820;49.374;8.452;2023-04-03T02:34:35;101593.63;;;11.05
13497;BMP180;6820;49.374;8.452;2023-04-03T02:38:38;101599.25;;;11.01
13497;BMP180;6820;49.374;8.452;2023-04-03T02:42:39;101590.47;;;10.97
13497;BMP180;6820;49.374;8.452;2023-04-03T02:46:41;101594.56;;;10.95
13497;BMP180;6820;49.374;8.452;2023-04-03T02:50:43;101596.84;;;10.93
13497;BMP180;6820;49.374;8.452;2023-04-03T02:54:44;101592.97;;;10.86
13497;BMP180;6820;49.374;8.452;2023-04-03T02:58:46;101583.88;;;10.78
13497;BMP180;6820;49.374;8.452;2023-04-03T03:02:50;101588.06;;;10.78
13497;BMP180;6820;49.374;8.452;2023-04-03T03:06:51;101587.44;;;10.70
13497;BMP180;6820;49.374;8.452;2023-04-03T03:10:53;101579.63;;;10.67
13497;BMP180;6820;49.374;8.452;2023-04-03T03:14:55;101586.97;;;10.64
13497;BMP180;6820;49.374;8.452;2023-04-03T03:18:56;101593.47;;;10.61
13497;BMP180;6820;49.374;8.452;2023-04-03T03:22:59;101595.00;;;10.59
13497;BMP180;6820;49.374;8.452;2023-04-03T03:27:01;101589.16;;;10.60
13497;BMP180;6820;49.374;8.452;2023-04-03T03:31:03;101599.44;;;10.52
13497;BMP180;6820;49.374;8.452;2023-04-03T03:35:06;101609.75;;;10.43
13497;BMP180;6820;49.374;8.452;2023-04-03T03:39:08;101615.59;;;10.42
13497;BMP180;6820;49.374;8.452;2023-04-03T03:43:09;101600.78;;;10.37
13497;BMP180;6820;49.374;8.452;2023-04-03T03:47:11;101613.56;;;10.38
13497;BMP180;6820;49.374;8.452;2023-04-03T03:51:13;101611.78;;;10.37
13497;BMP180;6820;49.374;8.452;2023-04-03T03:55:15;101620.78;;;10.34
13497;BMP180;6820;49.374;8.452;2023-04-03T03:59:17;101616.25;;;10.30
13497;BMP180;6820;49.374;8.452;2023-04-03T04:03:19;101616.00;;;10.27
13497;BMP180;6820;49.374;8.452;2023-04-03T04:07:23;101623.47;;;10.26
13497;BMP180;6820;49.374;8.452;2023-04-03T04:11:25;101622.09;;;10.19
13497;BMP180;6820;49.374;8.452;2023-04-03T04:15:29;101618.53;;;10.17
13497;BMP180;6820;49.374;8.452;2023-04-03T04:19:32;101618.19;;;10.13
13497;BMP180;6820;49.374;8.452;2023-04-03T04:23:34;101619.16;;;10.15
13497;BMP180;6820;49.374;8.452;2023-04-03T04:27:37;101626.03;;;10.16
13497;BMP180;6820;49.374;8.452;2023-04-03T04:31:39;101624.88;;;10.12
13497;BMP180;6820;49.374;8.452;2023-04-03T04:35:42;101618.94;;;10.12
13497;BMP180;6820;49.374;8.452;2023-04-03T04:39:45;101620.34;;;10.08
13497;BMP180;6820;49.374;8.452;2023-04-03T04:43:48;101614.88;;;10.04
13497;BMP180;6820;49.374;8.452;2023-04-03T04:47:50;101621.59;;;10.03
13497;BMP180;6820;49.374;8.452;2023-04-03T04:51:54;101623.25;;;10.03
13497;BMP180;6820;49.374;8.452;2023-04-03T04:56:01;101627.06;;;9.98
13497;BMP180;6820;49.374;8.452;2023-04-03T05:00:07;101628.97;;;10.01
13497;BMP180;6820;49.374;8.452;2023-04-03T05:04:09;101637.28;;;10.09
13497;BMP180;6820;49.374;8.452;2023-04-03T05:08:12;101634.25;;;10.13
13497;BMP180;6820;49.374;8.452;2023-04-03T05:12:16;101641.59;;;10.20
13497;BMP180;6820;49.374;8.452;2023-04-03T05:16:25;101645.00;;;10.31
13497;BMP180;6820;49.374;8.452;2023-04-03T05:20:28;101647.91;;;10.35
13497;BMP180;6820;49.374;8.452;2023-04-03T05:24:31;101644.19;;;10.41
13497;BMP180;6820;49.374;8.452;2023-04-03T05:28:34;101653.31;;;10.49
13497;BMP180;6820;49.374;8.452;2023-04-03T05:32:36;101651.88;;;10.63
13497;BMP180;6820;49.374;8.452;2023-04-03T05:37:00;101649.72;;;10.67
13497;BMP180;6820;49.374;8.452;2023-04-03T05:41:02;101656.94;;;10.63
13497;BMP180;6820;49.374;8.452;2023-04-03T05:45:04;101656.53;;;10.68
13497;BMP180;6820;49.374;8.452;2023-04-03T05:49:06;101663.50;;;10.70
13497;BMP180;6820;49.374;8.452;2023-04-03T05:53:18;101657.41;;;10.78
13497;BMP180;6820;49.374;8.452;2023-04-03T05:57:22;101668.03;;;10.84
13497;BMP180;6820;49.374;8.452;2023-04-03T06:01:24;101653.81;;;10.86
13497;BMP180;6820;49.374;8.452;2023-04-03T06:05:26;101651.13;;;10.94
13497;BMP180;6820;49.374;8.452;2023-04-03T06:09:28;101654.03;;;10.99
13497;BMP180;6820;49.374;8.452;2023-04-03T06:13:30;101653.00;;;10.97
13497;BMP180;6820;49.374;8.452;2023-04-03T06:17:32;101657.25;;;10.87
13497;BMP180;6820;49.374;8.452;2023-04-03T06:21:34;101657.78;;;10.83
13497;BMP180;6820;49.374;8.452;2023-04-03T06:25:37;101653.69;;;10.85
13497;BMP180;6820;49.374;8.452;2023-04-03T06:29:38;101662.31;;;10.87
13497;BMP180;6820;49.374;8.452;2023-04-03T06:33:40;101657.59;;;10.91
13497;BMP180;6820;49.374;8.452;2023-04-03T06:37:42;101656.31;;;10.96
13497;BMP180;6820;49.374;8.452;2023-04-03T06:41:43;101655.16;;;11.02
13497;BMP180;6820;49.374;8.452;2023-04-03T06:45:45;101654.38;;;11.03
13497;BMP180;6820;49.374;8.452;2023-04-03T06:49:47;101659.16;;;11.10
13497;BMP180;6820;49.374;8.452;2023-04-03T06:53:51;101661.19;;;11.14
13497;BMP180;6820;49.374;8.452;2023-04-03T06:57:52;101661.91;;;11.23
13497;BMP180;6820;49.374;8.452;2023-04-03T07:01:54;101667.34;;;11.27
13497;BMP180;6820;49.374;8.452;2023-04-03T07:05:56;101672.41;;;11.27
13497;BMP180;6820;49.374;8.452;2023-04-03T07:09:57;101682.66;;;11.29
13497;BMP180;6820;49.374;8.452;2023-04-03T07:13:59;101676.53;;;11.37
13497;BMP180;6820;49.374;8.452;2023-04-03T07:18:01;101687.69;;;11.39
13497;BMP180;6820;49.374;8.452;2023-04-03T07:22:03;101688.66;;;11.51
13497;BMP180;6820;49.374;8.452;2023-04-03T07:26:04;101701.06;;;11.57
13497;BMP180;6820;49.374;8.452;2023-04-03T07:30:08;101689.72;;;11.64
13497;BMP180;6820;49.374;8.452;2023-04-03T07:34:10;101694.75;;;11.74
13497;BMP180;6820;49.374;8.452;2023-04-03T07:38:12;101692.78;;;11.81
13497;BMP180;6820;49.374;8.452;2023-04-03T07:42:14;101701.31;;;11.93
13497;BMP180;6820;49.374;8.452;2023-04-03T07:46:16;101707.44;;;12.06
13497;BMP180;6820;49.374;8.452;2023-04-03T07:50:18;101708.91;;;12.14
13497;BMP180;6820;49.374;8.452;2023-04-03T07:54:20;101698.66;;;12.24
13497;BMP180;6820;49.374;8.452;2023-04-03T07:58:21;101704.75;;;12.37
13497;BMP180;6820;49.374;8.452;2023-04-03T08:02:23;101699.91;;;12.51
13497;BMP180;6820;49.374;8.452;2023-04-03T08:06:25;101703.47;;;12.65
13497;BMP180;6820;49.374;8.452;2023-04-03T08:10:51;101695.97;;;12.78
13497;BMP180;6820;49.374;8.452;2023-04-03T08:14:53;101700.28;;;12.90
13497;BMP180;6820;49.374;8.452;2023-04-03T08:18:55;101693.97;;;12.96
13497;BMP180;6820;49.374;8.452;2023-04-03T08:22:56;101695.63;;;13.07
13497;BMP180;6820;49.374;8.452;2023-04-03T08:26:58;101688.75;;;13.17
13497;BMP180;6820;49.374;8.452;2023-04-03T08:31:08;101693.94;;;13.30
13497;BMP180;6820;49.374;8.452;2023-04-03T08:35:12;101685.25;;;13.39
13497;BMP180;6820;49.374;8.452;2023-04-03T08:39:14;101688.69;;;13.51
13497;BMP180;6820;49.374;8.452;2023-04-03T08:43:53;101695.69;;;13.67
13497;BMP180;6820;49.374;8.452;2023-04-03T08:47:52;101694.66;;;13.76
13497;BMP180;6820;49.374;8.452;2023-04-03T08:51:59;101693.06;;;13.89
13497;BMP180;6820;49.374;8.452;2023-04-03T08:56:04;101687.34;;;14.04
13497;BMP180;6820;49.374;8.452;2023-04-03T09:04:16;101690.81;;;14.18
13497;BMP180;6820;49.374;8.452;2023-04-03T09:08:33;101693.59;;;14.21
13497;BMP180;6820;49.374;8.452;2023-04-03T09:12:41;101690.81;;;14.18
13497;BMP180;6820;49.374;8.452;2023-04-03T09:16:56;101691.44;;;14.27
13497;BMP180;6820;49.374;8.452;2023-04-03T09:21:30;101686.75;;;14.32
13497;BMP180;6820;49.374;8.452;2023-04-03T09:25:35;101688.44;;;14.45
13497;BMP180;6820;49.374;8.452;2023-04-03T09:29:43;101677.84;;;14.64
13497;BMP180;6820;49.374;8.452;2023-04-03T09:33:53;101677.44;;;14.84
13497;BMP180;6820;49.374;8.452;2023-04-03T09:42:21;101677.38;;;15.75
13497;BMP180;6820;49.374;8.452;2023-04-03T09:46:32;101675.16;;;16.08
13497;BMP180;6820;49.374;8.452;2023-04-03T09:50:36;101671.97;;;16.12
13497;BMP180;6820;49.374;8.452;2023-04-03T09:54:38;101665.31;;;16.28
13497;BMP180;6820;49.374;8.452;2023-04-03T09:58:44;101663.53;;;16.42
13497;BMP180;6820;49.374;8.452;2023-04-03T10:02:55;101662.69;;;16.55
13497;BMP180;6820;49.374;8.452;2023-04-03T10:06:57;101660.47;;;16.61
13497;BMP180;6820;49.374;8.452;2023-04-03T10:11:17;101657.03;;;16.61
13497;BMP180;6820;49.374;8.452;2023-04-03T10:15:20;101658.53;;;16.72
13497;BMP180;6820;49.374;8.452;2023-04-03T10:19:51;101645.84;;;16.89
13497;BMP180;6820;49.374;8.452;2023-04-03T10:28:20;101652.38;;;16.98
13497;BMP180;6820;49.374;8.452;2023-04-03T10:41:43;101647.72;;;17.21
13497;BMP180;6820;49.374;8.452;2023-04-03T10:45:56;101645.09;;;17.20
13497;BMP180;6820;49.374;8.452;2023-04-03T10:50:20;101645.28;;;17.38
13497;BMP180;6820;49.374;8.452;2023-04-03T10:54:49;101648.97;;;17.43
13497;BMP180;6820;49.374;8.452;2023-04-03T10:58:55;101630.06;;;17.41
13497;BMP180;6820;49.374;8.452;2023-04-03T11:03:03;101632.59;;;17.26
13497;BMP180;6820;49.374;8.452;2023-04-03T11:07:16;101637.97;;;17.30
13497;BMP180;6820;49.374;8.452;2023-04-03T11:11:22;101626.44;;;17.38
13497;BMP180;6820;49.374;8.452;2023-04-03T11:15:26;101627.91;;;17.49
13497;BMP180;6820;49.374;8.452;2023-04-03T11:19:38;101626.06;;;17.46
13497;BMP180;6820;49.374;8.452;2023-04-03T11:23:40;101630.38;;;17.47
13497;BMP180;6820;49.374;8.452;2023-04-03T11:27:55;101620.22;;;17.49
13497;BMP180;6820;49.374;8.452;2023-04-03T11:32:29;101621.25;;;17.68
13497;BMP180;6820;49.374;8.452;2023-04-03T11:36:50;101622.09;;;17.84
13497;BMP180;6820;49.374;8.452;2023-04-03T11:40:56;101613.03;;;17.91
13497;BMP180;6820;49.374;8.452;2023-04-03T11:45:34;101610.69;;;17.95
13497;BMP180;6820;49.374;8.452;2023-04-03T11:49:57;101610.41;;;18.05
13497;BMP180;6820;49.374;8.452;2023-04-03T12:07:32;101603.34;;;17.85
13497;BMP180;6820;49.374;8.452;2023-04-03T12:11:35;101591.56;;;17.89
13497;BMP180;6820;49.374;8.452;2023-04-03T12:19:39;101602.56;;;17.70
13497;BMP180;6820;49.374;8.452;2023-04-03T12:24:03;101604.13;;;17.51
13497;BMP180;6820;49.374;8.452;2023-04-03T12:28:05;101599.34;;;17.43
13497;BMP180;6820;49.374;8.452;2023-04-03T12:32:35;101597.59;;;17.42
13497;BMP180;6820;49.374;8.452;2023-04-03T12:36:52;101604.00;;;17.18
13497;BMP180;6820;49.374;8.452;2023-04-03T12:41:04;101598.44;;;17.11
13497;BMP180;6820;49.374;8.452;2023-04-03T12:45:19;101590.78;;;17.27
13497;BMP180;6820;49.374;8.452;2023-04-03T12:53:39;101583.66;;;18.17
13497;BMP180;6820;49.374;8.452;2023-04-03T12:57:41;101589.41;;;18.29
13497;BMP180;6820;49.374;8.452;2023-04-03T13:01:44;101596.69;;;17.89
13497;BMP180;6820;49.374;8.452;2023-04-03T13:06:01;101590.72;;;17.41
13497;BMP180;6820;49.374;8.452;2023-04-03T13:14:19;101576.34;;;17.76
13497;BMP180;6820;49.374;8.452;2023-04-03T13:18:32;101566.00;;;18.23
13497;BMP180;6820;49.374;8.452;2023-04-03T13:22:36;101566.88;;;18.75
13497;BMP180;6820;49.374;8.452;2023-04-03T13:26:45;101546.47;;;19.52
13497;BMP180;6820;49.374;8.452;2023-04-03T13:31:00;101536.19;;;19.90
13497;BMP180;6820;49.374;8.452;2023-04-03T13:35:33;101553.75;;;19.80
13497;BMP180;6820;49.374;8.452;2023-04-03T13:39:38;101547.75;;;19.61
13497;BMP180;6820;49.374;8.452;2023-04-03T13:43:40;101556.94;;;19.56
13497;BMP180;6820;49.374;8.452;2023-04-03T13:47:44;101558.00;;;19.22
13497;BMP180;6820;49.374;8.452;2023-04-03T13:51:47;101571.94;;;18.74
13497;BMP180;6820;49.374;8.452;2023-04-03T13:56:13;101563.53;;;18.42
13497;BMP180;6820;49.374;8.452;2023-04-03T14:00:28;101558.00;;;18.52
13497;BMP180;6820;49.374;8.452;2023-04-03T14:04:53;101562.47;;;18.38
13497;BMP180;6820;49.374;8.452;2023-04-03T14:08:59;101545.25;;;18.36
13497;BMP180;6820;49.374;8.452;2023-04-03T14:13:00;101553.16;;;18.75
13497;BMP180;6820;49.374;8.452;2023-04-03T14:17:13;101546.19;;;19.08
13497;BMP180;6820;49.374;8.452;2023-04-03T14:21:25;101525.03;;;19.32
13497;BMP180;6820;49.374;8.452;2023-04-03T14:25:27;101525.06;;;19.71
13497;BMP180;6820;49.374;8.452;2023-04-03T14:29:29;101514.06;;;20.14
13497;BMP180;6820;49.374;8.452;2023-04-03T14:33:32;101506.22;;;20.53
13497;BMP180;6820;49.374;8.452;2023-04-03T14:37:36;101499.16;;;20.49
13497;BMP180;6820;49.374;8.452;2023-04-03T14:41:38;101505.09;;;19.84
13497;BMP180;6820;49.374;8.452;2023-04-03T14:45:39;101504.13;;;19.44
13497;BMP180;6820;49.374;8.452;2023-04-03T14:49:41;101521.06;;;19.20
13497;BMP180;6820;49.374;8.452;2023-04-03T14:53:44;101497.63;;;19.52
13497;BMP180;6820;49.374;8.452;2023-04-03T14:57:46;101495.75;;;19.86
13497;BMP180;6820;49.374;8.452;2023-04-03T15:01:48;101496.94;;;19.94
13497;BMP180;6820;49.374;8.452;2023-04-03T15:05:50;101495.47;;;20.01
13497;BMP180;6820;49.374;8.452;2023-04-03T15:09:52;101482.72;;;20.04
13497;BMP180;6820;49.374;8.452;2023-04-03T15:13:53;101479.34;;;20.05
13497;BMP180;6820;49.374;8.452;2023-04-03T15:17:56;101478.22;;;19.98
13497;BMP180;6820;49.374;8.452;2023-04-03T15:21:59;101480.66;;;19.95
13497;BMP180;6820;49.374;8.452;2023-04-03T15:26:01;101474.84;;;19.99
13497;BMP180;6820;49.374;8.452;2023-04-03T15:30:05;101467.28;;;20.04
13497;BMP180;6820;49.374;8.452;2023-04-03T15:34:06;101478.66;;;20.09
13497;BMP180;6820;49.374;8.452;2023-04-03T15:38:09;101471.63;;;20.05
13497;BMP180;6820;49.374;8.452;2023-04-03T15:42:11;101488.16;;;19.71
13497;BMP180;6820;49.374;8.452;2023-04-03T15:46:13;101491.16;;;19.41
13497;BMP180;6820;49.374;8.452;2023-04-03T15:50:16;101481.56;;;19.57
13497;BMP180;6820;49.374;8.452;2023-04-03T15:54:18;101472.06;;;19.75
13497;BMP180;6820;49.374;8.452;2023-04-03T15:58:19;101474.09;;;20.02
13497;BMP180;6820;49.374;8.452;2023-04-03T16:02:21;101476.72;;;20.03
13497;BMP180;6820;49.374;8.452;2023-04-03T16:06:24;101478.41;;;20.03
13497;BMP180;6820;49.374;8.452;2023-04-03T16:10:26;101481.38;;;19.52
13497;BMP180;6820;49.374;8.452;2023-04-03T16:14:28;101490.38;;;18.87
13497;BMP180;6820;49.374;8.452;2023-04-03T16:18:31;101489.25;;;18.99
13497;BMP180;6820;49.374;8.452;2023-04-03T16:22:36;101478.97;;;18.99
13497;BMP180;6820;49.374;8.452;2023-04-03T16:26:38;101485.81;;;18.99
13497;BMP180;6820;49.374;8.452;2023-04-03T16:30:41;101484.94;;;19.17
13497;BMP180;6820;49.374;8.452;2023-04-03T16:34:42;101481.19;;;19.11
13497;BMP180;6820;49.374;8.452;2023-04-03T16:38:45;101472.84;;;18.96
13497;BMP180;6820;49.374;8.452;2023-04-03T16:42:47;101484.34;;;18.87
13497;BMP180;6820;49.374;8.452;2023-04-03T16:46:48;101480.91;;;18.86
13497;BMP180;6820;49.374;8.452;2023-04-03T16:50:50;101487.97;;;18.73
13497;BMP180;6820;49.374;8.452;2023-04-03T16:54:54;101488.53;;;18.49
13497;BMP180;6820;49.374;8.452;2023-04-03T16:58:57;101500.81;;;18.20
13497;BMP180;6820;49.374;8.452;2023-04-03T17:02:58;101502.25;;;17.98
13497;BMP180;6820;49.374;8.452;2023-04-03T17:07:00;101494.34;;;17.77
13497;BMP180;6820;49.374;8.452;2023-04-03T17:11:07;101505.72;;;17.65
13497;BMP180;6820;49.374;8.452;2023-04-03T17:15:09;101506.75;;;17.53
13497;BMP180;6820;49.374;8.452;2023-04-03T17:19:11;101510.94;;;17.35
13497;BMP180;6820;49.374;8.452;2023-04-03T17:23:13;101507.28;;;17.14
13497;BMP180;6820;49.374;8.452;2023-04-03T17:27:14;101523.31;;;16.80
13497;BMP180;6820;49.374;8.452;2023-04-03T17:31:16;101523.94;;;16.46
13497;BMP180;6820;49.374;8.452;2023-04-03T17:35:18;101530.97;;;16.20
13497;BMP180;6820;49.374;8.452;2023-04-03T17:39:19;101528.78;;;15.98
13497;BMP180;6820;49.374;8.452;2023-04-03T17:43:21;101531.94;;;15.80
13497;BMP180;6820;49.374;8.452;2023-04-03T17:47:22;101535.22;;;15.63
13497;BMP180;6820;49.374;8.452;2023-04-03T17:51:26;101548.16;;;15.52
13497;BMP180;6820;49.374;8.452;2023-04-03T17:55:27;101544.59;;;15.35
13497;BMP180;6820;49.374;8.452;2023-04-03T17:59:29;101546.41;;;15.23
13497;BMP180;6820;49.374;8.452;2023-04-03T18:03:31;101545.69;;;15.12
13497;BMP180;6820;49.374;8.452;2023-04-03T18:07:33;101548.53;;;15.03
13497;BMP180;6820;49.374;8.452;2023-04-03T18:11:34;101553.03;;;14.94
13497;BMP180;6820;49.374;8.452;2023-04-03T18:15:37;101554.34;;;14.88
13497;BMP180;6820;49.374;8.452;2023-04-03T18:19:44;101553.78;;;14.79
13497;BMP180;6820;49.374;8.452;2023-04-03T18:23:48;101559.28;;;14.72
13497;BMP180;6820;49.374;8.452;2023-04-03T18:27:50;101563.22;;;14.67
13497;BMP180;6820;49.374;8.452;2023-04-03T18:31:54;101569.81;;;14.64
13497;BMP180;6820;49.374;8.452;2023-04-03T18:35:56;101570.31;;;14.59
13497;BMP180;6820;49.374;8.452;2023-04-03T18:39:58;101563.44;;;14.45
13497;BMP180;6820;49.374;8.452;2023-04-03T18:44:02;101567.44;;;14.41
13497;BMP180;6820;49.374;8.452;2023-04-03T18:48:04;101576.41;;;14.35
13497;BMP180;6820;49.374;8.452;2023-04-03T18:52:06;101576.69;;;14.27
13497;BMP180;6820;49.374;8.452;2023-04-03T18:56:08;101576.31;;;14.21
13497;BMP180;6820;49.374;8.452;2023-04-03T19:00:10;101586.19;;;14.16
13497;BMP180;6820;49.374;8.452;2023-04-03T19:04:12;101586.88;;;14.14
13497;BMP180;6820;49.374;8.452;2023-04-03T19:08:14;101590.69;;;14.07
13497;BMP180;6820;49.374;8.452;2023-04-03T19:12:15;101592.94;;;14.03
13497;BMP180;6820;49.374;8.452;2023-04-03T19:16:17;101596.84;;;13.98
13497;BMP180;6820;49.374;8.452;2023-04-03T19:20:19;101600.84;;;13.95
13497;BMP180;6820;49.374;8.452;2023-04-03T19:24:21;101606.50;;;13.91
13497;BMP180;6820;49.374;8.452;2023-04-03T19:28:22;101600.78;;;13.82
13497;BMP180;6820;49.374;8.452;2023-04-03T19:32:24;101609.47;;;13.72
13497;BMP180;6820;49.374;8.452;2023-04-03T19:36:26;101610.06;;;13.69
13497;BMP180;6820;49.374;8.452;2023-04-03T19:40:28;101599.66;;;13.66
13497;BMP180;6820;49.374;8.452;2023-04-03T19:44:32;101611.53;;;13.65
13497;BMP180;6820;49.374;8.452;2023-04-03T19:48:34;101616.31;;;13.61
13497;BMP180;6820;49.374;8.452;2023-04-03T19:52:36;101615.00;;;13.54
13497;BMP180;6820;49.374;8.452;2023-04-03T19:56:38;101614.69;;;13.50
13497;BMP180;6820;49.374;8.452;2023-04-03T20:00:40;101623.59;;;13.43
13497;BMP180;6820;49.374;8.452;2023-04-03T20:04:42;101630.69;;;13.36
13497;BMP180;6820;49.374;8.452;2023-04-03T20:08:43;101632.72;;;13.29
13497;BMP180;6820;49.374;8.452;2023-04-03T20:12:45;101625.31;;;13.20
13497;BMP180;6820;49.374;8.452;2023-04-03T20:16:47;101625.00;;;13.16
13497;BMP180;6820;49.374;8.452;2023-04-03T20:20:53;101626.44;;;13.12
13497;BMP180;6820;49.374;8.452;2023-04-03T20:24:55;101632.78;;;13.06
13497;BMP180;6820;49.374;8.452;2023-04-03T20:29:02;101631.38;;;12.98
13497;BMP180;6820;49.374;8.452;2023-04-03T20:33:04;101636.78;;;12.91
13497;BMP180;6820;49.374;8.452;2023-04-03T20:37:07;101631.34;;;12.87
13497;BMP180;6820;49.374;8.452;2023-04-03T20:41:09;101632.81;;;12.83
13497;BMP180;6820;49.374;8.452;2023-04-03T20:45:11;101636.03;;;12.81
13497;BMP180;6820;49.374;8.452;2023-04-03T20:49:13;101624.75;;;12.78
13497;BMP180;6820;49.374;8.452;2023-04-03T20:53:15;101637.22;;;12.75
13497;BMP180;6820;49.374;8.452;2023-04-03T20:57:19;101629.91;;;12.68
13497;BMP180;6820;49.374;8.452;2023-04-03T21:01:22;101625.28;;;12.62
13497;BMP180;6820;49.374;8.452;2023-04-03T21:05:24;101627.38;;;12.56
13497;BMP180;6820;49.374;8.452;2023-04-03T21:23:05;101637.78;;;12.37
13497;BMP180;6820;49.374;8.452;2023-04-03T21:27:07;101636.78;;;12.35
13497;BMP180;6820;49.374;8.452;2023-04-03T21:31:09;101640.44;;;12.27
13497;BMP180;6820;49.374;8.452;2023-04-03T21:35:12;101629.81;;;12.21
13497;BMP180;6820;49.374;8.452;2023-04-03T21:39:13;101643.19;;;12.18
13497;BMP180;6820;49.374;8.452;2023-04-03T21:43:15;101643.72;;;12.15
13497;BMP180;6820;49.374;8.452;2023-04-03T21:47:18;101648.69;;;12.13
13497;BMP180;6820;49.374;8.452;2023-04-03T21:51:20;101646.81;;;12.11
13497;BMP180;6820;49.374;8.452;2023-04-03T21:55:21;101637.97;;;12.06
13497;BMP180;6820;49.374;8.452;2023-04-03T21:59:23;101643.69;;;12.03
13497;BMP180;6820;49.374;8.452;2023-04-03T22:03:25;101636.72;;;12.01
13497;BMP180;6820;49.374;8.452;2023-04-03T22:07:27;101641.88;;;11.91
13497;BMP180;6820;49.374;8.452;2023-04-03T22:11:29;101640.66;;;11.86
13497;BMP180;6820;49.374;8.452;2023-04-03T22:15:34;101648.03;;;11.83
13497;BMP180;6820;49.374;8.452;2023-04-03T22:19:37;101648.84;;;11.82
13497;BMP180;6820;49.374;8.452;2023-04-03T22:23:39;101641.63;;;11.77
13497;BMP180;6820;49.374;8.452;2023-04-03T22:27:41;101645.94;;;11.78
13497;BMP180;6820;49.374;8.452;2023-04-03T22:31:42;101647.28;;;11.73
13497;BMP180;6820;49.374;8.452;2023-04-03T22:35:48;101645.47;;;11.72
13497;BMP180;6820;49.374;8.452;2023-04-03T22:39:49;101642.47;;;11.66
13497;BMP180;6820;49.374;8.452;2023-04-03T22:43:51;101638.84;;;11.62
13497;BMP180;6820;49.374;8.452;2023-04-03T22:47:52;101635.06;;;11.57
13497;BMP180;6820;49.374;8.452;2023-04-03T22:51:58;101642.69;;;11.57
13497;BMP180;6820;49.374;8.452;2023-04-03T22:56:03;101636.59;;;11.56
13497;BMP180;6820;49.374;8.452;2023-04-03T23:00:05;101639.91;;;11.55
13497;BMP180;6820;49.374;8.452;2023-04-03T23:04:07;101637.16;;;11.52
13497;BMP180;6820;49.374;8.452;2023-04-03T23:08:09;101648.03;;;11.51
13497;BMP180;6820;49.374;8.452;2023-04-03T23:12:10;101639.19;;;11.46
13497;BMP180;6820;49.374;8.452;2023-04-03T23:16:12;101643.28;;;11.44
13497;BMP180;6820;49.374;8.452;2023-04-03T23:20:14;101650.13;;;11.35
13497;BMP180;6820;49.374;8.452;2023-04-03T23:24:15;101643.31;;;11.34
13497;BMP180;6820;49.374;8.452;2023-04-03T23:28:17;101649.81;;;11.30
13497;BMP180;6820;49.374;8.452;2023-04-03T23:32:19;101648.56;;;11.25
13497;BMP180;6820;49.374;8.452;2023-04-03T23:36:20;101647.69;;;11.25
13497;BMP180;6820;49.374;8.452;2023-04-03T23:40:22;101647.69;;;11.25
13497;BMP180;6820;49.374;8.452;2023-04-03T23:44:23;101645.56;;;11.20
13497;BMP180;6820;49.374;8.452;2023-04-03T23:48:25;101647.72;;;11.15
13497;BMP180;6820;49.374;8.452;2023-04-03T23:52:27;101647.34;;;11.11
13497;BMP180;6820;49.374;8.452;2023-04-03T23:56:28;101642.69;;;11.05
